• Join FlightAware (Why Join?)
  • Login
  • US Flag 
12:43AM EDT


 

Airport Tracker/Info


-or-


 

Live Flight TrackerFlight Track Log ✈ UAL4234 ✈ 04-Apr-2013 ✈ KCLT - KIAH

Flight Track Log - Related Links

Times and Time Zones

All times are in EDT time to prevent confusion due to time zone crossing. See the UAL4234 flight status page for this flight to view local times or setup timezone preferences in your user account.

Time Position Orientation Groundspeed Altitude Reporting Facility
EDT Latitude Longitude Course Direction KTS MPH feet Rate Location/Type
07:13AM 35.2228 -80.9572 251° West 141 162 1,400  Level Atlanta Center
07:13AM 35.2650 -80.9811 335° Northwest 224 258 2,900 1,620 Climbing Atlanta Center
07:14AM 35.2697 -81.0039 284° West 243 280 3,400 2,280 Climbing Atlanta Center
07:14AM 35.2817 -81.0669 283° West 269 310 5,200 3,000 Climbing Atlanta Center
07:15AM 35.2911 -81.1150 284° West 277 319 7,000 2,700 Climbing Atlanta Center
07:15AM 35.2900 -81.1533 268° West 280 322 7,900 1,080 Climbing Atlanta Center
07:16AM 35.2452 -81.2259 199° South  Level FlightAware Approximate
07:16AM 35.2742 -81.1869 240° Southwest 275 316 8,000  Level Atlanta Center
07:16AM 35.2458 -81.2261 228° Southwest 292 336 8,000 120 Level Atlanta Center
07:17AM 35.1586 -81.2630 199° South  Level FlightAware Approximate
07:17AM 35.1975 -81.2989 231° Southwest 292 336 8,200  Level Atlanta Center
07:18AM 35.0785 -81.3003 251° West  Level FlightAware Approximate
07:18AM 35.1550 -81.3614 230° Southwest 287 330 10,600  Level Atlanta Center
07:19AM 35.1044 -81.4339 230° Southwest 287 330 11,900 1,200 Climbing Atlanta Center
07:20AM 35.0478 -81.5194 231° Southwest 308 354 13,000 1,380 Climbing Atlanta Center
07:21AM 34.9931 -81.6047 232° Southwest 324 373 14,700 1,560 Climbing Atlanta Center
07:22AM 34.9617 -81.7097 250° West 324 373 16,200 1,380 Climbing Atlanta Center
07:23AM 34.9242 -81.8272 249° West 336 387 17,500 1,080 Climbing Atlanta Center
07:24AM 34.8697 -81.9222 235° Southwest 342 394 18,400 960 Climbing Atlanta Center
07:25AM 34.8189 -82.0097 235° Southwest 348 400 19,500 1,200 Climbing Atlanta Center
07:26AM 34.7619 -82.1097 235° Southwest 361 415 20,800 1,200 Climbing Atlanta Center
07:27AM 34.7053 -82.2094 235° Southwest 366 421 22,000 1,260 Climbing Atlanta Center
07:28AM 34.6461 -82.3117 235° Southwest 366 421 23,400 1,440 Climbing Atlanta Center
07:29AM 34.5892 -82.4114 235° Southwest 366 421 24,900 1,500 Climbing Atlanta Center
07:30AM 34.5319 -82.5108 235° Southwest 366 421 26,400 1,500 Climbing Atlanta Center
07:31AM 34.4767 -82.6025 234° Southwest 359 413 28,000 1,500 Climbing Atlanta Center
07:32AM 34.4233 -82.6942 235° Southwest 354 407 29,500 1,500 Climbing Atlanta Center
07:33AM 34.3700 -82.7831 234° Southwest 336 387 31,100 1,500 Climbing Atlanta Center
07:34AM 34.3231 -82.8717 237° Southwest 331 381 32,600 1,500 Climbing Atlanta Center
07:35AM 34.2717 -82.9553 233° Southwest 326 375 34,100 1,500 Climbing Atlanta Center
07:36AM 34.2203 -83.0439 235° Southwest 312 359 35,600 900 Climbing Atlanta Center
07:37AM 34.1750 -83.1247 236° Southwest 299 344 36,000 180 Climbing Atlanta Center
07:38AM 34.1233 -83.2108 234° Southwest 305 351 36,000  Level Atlanta Center
07:39AM 34.0697 -83.3042 235° Southwest 328 377 36,000  Level Atlanta Center
07:40AM 34.0139 -83.3947 233° Southwest 345 397 36,000  Level Atlanta Center
07:41AM 33.9600 -83.4903 236° Southwest 345 397 36,000  Level Atlanta Center
07:42AM 33.9061 -83.5808 234° Southwest 345 397 36,000  Level Atlanta Center
07:43AM 33.8522 -83.6711 234° Southwest 336 387 36,000  Level Atlanta Center
07:44AM 33.8022 -83.7539 234° Southwest 341 392 36,000  Level Atlanta Center
07:45AM 33.7503 -83.8439 235° Southwest 336 387 36,000  Level Atlanta Center
07:46AM 33.6939 -83.9339 233° Southwest 336 387 36,000  Level Atlanta Center
07:47AM 33.6419 -84.0214 235° Southwest 336 387 36,000  Level Atlanta Center
07:48AM 33.5897 -84.1136 236° Southwest 336 387 36,000  Level Atlanta Center
07:49AM 33.5292 -84.2108 233° Southwest 336 387 36,000  Level Atlanta Center
07:50AM 33.4767 -84.3003 235° Southwest 336 387 36,000  Level Atlanta Center
07:51AM 33.4222 -84.3897 234° Southwest 336 387 36,000  Level Atlanta Center
07:52AM 33.3678 -84.4792 234° Southwest 336 387 36,000  Level Atlanta Center
07:53AM 33.3150 -84.5683 235° Southwest 336 387 36,000  Level Atlanta Center
07:54AM 33.2606 -84.6600 235° Southwest 336 387 36,000  Level Atlanta Center
07:55AM 33.2036 -84.7489 233° Southwest 341 392 36,000  Level Atlanta Center
07:56AM 33.1550 -84.8328 235° Southwest 341 392 36,000  Level Atlanta Center
07:57AM 33.1044 -84.9192 235° Southwest 331 381 36,000  Level Atlanta Center
07:58AM 33.0475 -85.0078 233° Southwest 341 392 36,000  Level Atlanta Center
07:59AM 32.9944 -85.0964 234° Southwest 336 387 36,000  Level Atlanta Center
08:00AM 32.9311 -85.1872 230° Southwest 336 387 36,000  Level Atlanta Center
08:01AM 32.8758 -85.2756 233° Southwest 336 387 36,000  Level Atlanta Center
08:02AM 32.8208 -85.3636 233° Southwest 336 387 36,000  Level Atlanta Center
08:03AM 32.7656 -85.4517 233° Southwest 336 387 36,000  Level Atlanta Center
08:04AM 32.7122 -85.5422 235° Southwest 336 387 36,000  Level Atlanta Center
08:05AM 32.6569 -85.6303 233° Southwest 336 387 36,000  Level Atlanta Center
08:06AM 32.6014 -85.7181 233° Southwest 336 387 36,000  Level Atlanta Center
08:07AM 32.5458 -85.8081 234° Southwest 336 387 36,000  Level Atlanta Center
08:08AM 32.4944 -85.8908 234° Southwest 350 403 36,000  Level Atlanta Center
08:09AM 32.4347 -85.9806 232° Southwest 350 403 36,000  Level Atlanta Center
08:10AM 32.3747 -86.0728 232° Southwest 355 409 36,000  Level Atlanta Center
08:11AM 32.3317 -86.1553 238° Southwest 340 391 36,000  Level Atlanta Center
08:12AM 32.2656 -86.2447 229° Southwest 340 391 36,000  Level Atlanta Center
08:13AM 32.2133 -86.3489 239° Southwest 340 391 36,000  Level Atlanta Center
08:14AM 32.1492 -86.4306 227° Southwest 340 391 36,000  Level Atlanta Center
08:15AM 32.0911 -86.5172 232° Southwest 340 391 36,000  Level Atlanta Center
08:16AM 32.0289 -86.5989 228° Southwest 346 398 36,000  Level Atlanta Center
08:17AM 31.9686 -86.6853 231° Southwest 346 398 36,000  Level Atlanta Center
08:18AM 31.9022 -86.7689 227° Southwest 355 409 36,000  Level Atlanta Center
08:19AM 31.8461 -86.8528 232° Southwest 350 403 36,000  Level Atlanta Center
08:22AM 31.7086 -87.0306 228° Southwest 335 386 36,000  Level Houston Center
08:23AM 31.6467 -87.1147 229° Southwest 339 390 36,000  Level Houston Center
08:24AM 31.5856 -87.2000 230° Southwest 341 392 36,000  Level Houston Center
08:25AM 31.5242 -87.2828 229° Southwest 337 388 36,000  Level Houston Center
08:26AM 31.4636 -87.3667 230° Southwest 337 388 36,000  Level Houston Center
08:27AM 31.3892 -87.4669 229° Southwest 339 390 36,000  Level Houston Center
08:28AM 31.3275 -87.5511 229° Southwest 339 390 36,000  Level Houston Center
08:29AM 31.2661 -87.6350 229° Southwest 339 390 36,000  Level Houston Center
08:30AM 31.2086 -87.7111 229° Southwest 341 392 36,000  Level Houston Center
08:31AM 31.1344 -87.8125 229° Southwest 343 395 36,000  Level Houston Center
08:32AM 31.0722 -87.8964 229° Southwest 344 396 36,000  Level Houston Center
08:33AM 31.0097 -87.9803 229° Southwest 344 396 36,000  Level Houston Center
08:34AM 30.9458 -88.0636 228° Southwest 345 397 36,000  Level Houston Center
08:35AM 30.8822 -88.1472 228° Southwest 346 398 36,000 -60 Level Houston Center
08:36AM 30.8200 -88.2325 230° Southwest 346 398 35,900  Descending Houston Center
08:37AM 30.7561 -88.3150 228° Southwest 344 396 36,000  Climbing Houston Center
08:38AM 30.7014 -88.4267 240° Southwest 345 397 36,000  Level Houston Center
08:39AM 30.6653 -88.5308 248° West 345 397 36,000  Level Houston Center
08:40AM 30.6289 -88.6350 248° West 347 399 36,000  Level Houston Center
08:41AM 30.5936 -88.7389 248° West 345 397 36,000  Level Houston Center
08:42AM 30.5578 -88.8433 248° West 348 400 36,000  Level Houston Center
08:43AM 30.5206 -88.9508 248° West 349 402 36,000  Level Houston Center
08:44AM 30.4853 -89.0544 248° West 348 400 36,000  Level Houston Center
08:45AM 30.4425 -89.1789 248° West 346 398 36,000  Level Houston Center
08:46AM 30.4069 -89.2839 249° West 350 403 36,000  Level Houston Center
08:47AM 30.3706 -89.3878 248° West 349 402 36,000  Level Houston Center
08:48AM 30.3331 -89.4919 247° West 349 402 36,000  Level Houston Center
08:49AM 30.2964 -89.5969 248° West 349 402 36,000  Level Houston Center
08:51AM 30.2614 -89.6961 248° West 348 400 36,000  Level Houston Center
08:52AM 30.2206 -89.8103 248° West 355 409 36,000  Level Houston Center
08:53AM 30.1839 -89.9147 248° West 349 402 36,000  Level Houston Center
08:54AM 30.1411 -90.0283 246° West 349 402 36,000  Level Houston Center
08:55AM 30.1094 -90.1247 249° West 354 407 36,000  Level Houston Center
08:56AM 30.0714 -90.2308 248° West 357 411 36,000  Level Houston Center
08:57AM 30.0333 -90.3358 247° West 356 410 36,000  Level Houston Center
08:58AM 29.9908 -90.4508 247° West 358 412 36,000  Level Houston Center
08:59AM 29.9492 -90.5692 248° West 359 413 36,000  Level Houston Center
09:00AM 29.9100 -90.6750 247° West 359 413 36,000  Level Houston Center
09:01AM 29.8722 -90.7817 248° West 361 415 36,000  Level Houston Center
09:02AM 29.8331 -90.8889 247° West 362 417 36,000  Level Houston Center
09:03AM 29.7931 -90.9953 247° West 363 418 36,000  Level Houston Center
09:04AM 29.7464 -91.1236 247° West 362 417 36,000  Level Houston Center
09:05AM 29.7078 -91.2311 248° West 364 419 36,000  Level Houston Center
09:06AM 29.6678 -91.3383 247° West 364 419 36,000  Level Houston Center
09:07AM 29.6289 -91.4450 247° West 364 419 36,000  Level Houston Center
09:08AM 29.6075 -91.5592 258° West 368 423 36,000  Level Houston Center
09:09AM 29.5869 -91.6739 258° West 367 422 36,000  Level Houston Center
09:10AM 29.5661 -91.8008 259° West 368 423 36,000  Level Houston Center
09:11AM 29.5469 -91.9164 259° West 368 423 36,000  Level Houston Center
09:12AM 29.5281 -92.0314 259° West 367 422 36,000  Level Houston Center
09:13AM 29.5092 -92.1469 259° West 369 425 36,000  Level Houston Center
09:14AM 29.4861 -92.2850 259° West 367 422 36,000  Level Houston Center
09:15AM 29.4667 -92.3986 259° West 364 419 36,000  Level Houston Center
09:16AM 29.4594 -92.5128 266° West 361 415 36,000  Level Houston Center
09:17AM 29.4647 -92.6306 273° West 368 423 36,000  Level Houston Center
09:18AM 29.4697 -92.7472 273° West 367 422 36,000  Level Houston Center
09:19AM 29.4758 -92.8633 273° West 365 420 36,000  Level Houston Center
09:20AM 29.4806 -92.9797 273° West 365 420 36,000 -420 Level Houston Center
09:21AM 29.4858 -93.0972 273° West 367 422 35,200 -1,860 Descending Houston Center
09:22AM 29.4911 -93.2306 273° West 351 404 32,200 -2,700 Descending Houston Center
09:23AM 29.4958 -93.3400 273° West 345 397 29,700 -2,400 Descending Houston Center
09:24AM 29.5006 -93.4606 273° West 371 427 27,400 -2,040 Descending Houston Center
09:25AM 29.5056 -93.5758 273° West 365 420 25,600 -1,800 Descending Houston Center
09:27AM 29.5097 -93.6856 273° West 349 402 23,700 -1,860 Descending Houston Center
09:28AM 29.5142 -93.7914 273° West 335 386 21,800 -1,860 Descending Houston Center
09:29AM 29.5175 -93.8956 272° West 328 377 19,900 -1,980 Descending Houston Center
09:29AM 29.5200 -93.9744 272° West 317 365 18,500 -1,920 Descending Houston Center
09:30AM 29.5219 -94.0342 272° West 318 366 17,700 -1,680 Descending Houston Center
09:31AM 29.5256 -94.1231 273° West 329 379 16,100 -1,800 Descending Houston Center
09:32AM 29.5294 -94.2286 272° West 318 366 14,300 -1,560 Descending Houston Center
09:33AM 29.5328 -94.3286 272° West 301 346 13,000 -660 Descending Houston Center
09:34AM 29.5617 -94.4119 292° West 300 345 13,000 -480 Level Houston Center
09:35AM 29.6000 -94.4986 297° West 305 351 12,000 -1,020 Descending Houston Center
09:36AM 29.6356 -94.5842 296° West 299 344 10,900 -960 Descending Houston Center
09:37AM 29.6783 -94.6581 304° West 289 333 10,100 -1,020 Descending Houston Center
09:38AM 29.7603 -94.6944 339° North 264 304 8,900 -1,080 Descending Houston Center
09:39AM 29.8322 -94.7256 339° North 266 306 7,900 -1,080 Descending Houston Center
09:40AM 29.9022 -94.7553 340° North 254 292 6,800 -1,320 Descending Houston Center
09:41AM 29.9583 -94.7814 338° Northwest 250 288 5,200 -1,800 Descending Houston Center
09:42AM 29.9889 -94.8481 298° West 227 261 3,400 -1,080 Descending Houston Center
09:43AM 30.0111 -94.9236 289° West 238 274 3,000 -240 Descending Houston Center
09:44AM 30.0061 -94.9858 265° West 233 268 3,000  Level Houston Center
09:45AM 30.0075 -95.0678 271° West 238 274 3,000  Level Houston Center
09:46AM 30.0083 -95.1425 271° West 232 267 3,100 -420 Climbing Houston Center
09:47AM 30.0069 -95.2175 269° West 227 261 2,200 -960 Descending Houston Center
09:48AM 30.0078 -95.2728 271° West 134 154 1,200 -1,020 Descending Houston Center